createdAt,value
2018-11-04T00:01:38.463Z,11.10
2018-11-04T00:04:06.998Z,11.10
2018-11-04T00:06:35.491Z,11.20
2018-11-04T00:09:05.241Z,11.20
2018-11-04T00:11:33.596Z,11.10
2018-11-04T00:14:01.872Z,11.10
2018-11-04T00:16:30.551Z,11.00
2018-11-04T00:18:59.398Z,11.00
2018-11-04T00:21:27.600Z,11.10
2018-11-04T00:23:55.907Z,11.20
2018-11-04T00:26:24.175Z,11.20
2018-11-04T00:28:52.428Z,11.20
2018-11-04T00:31:20.882Z,11.20
2018-11-04T00:33:49.116Z,11.20
2018-11-04T00:36:17.376Z,11.10
2018-11-04T00:38:45.708Z,11.10
2018-11-04T00:41:14.154Z,11.10
2018-11-04T00:43:42.779Z,11.00
2018-11-04T00:46:11.059Z,11.10
2018-11-04T00:48:39.325Z,11.20
2018-11-04T00:51:07.614Z,11.20
2018-11-04T00:53:35.842Z,11.20
2018-11-04T00:56:04.604Z,11.20
2018-11-04T00:58:33.260Z,11.10
2018-11-04T01:01:01.944Z,11.00
2018-11-04T01:03:30.464Z,11.10
2018-11-04T01:05:58.698Z,11.20
2018-11-04T01:08:27.226Z,11.20
2018-11-04T01:10:55.511Z,11.20
2018-11-04T01:13:23.777Z,11.10
2018-11-04T01:15:52.423Z,11.10
2018-11-04T01:18:21.051Z,11.00
2018-11-04T01:20:49.374Z,11.00
2018-11-04T01:23:17.939Z,11.00
2018-11-04T01:25:46.324Z,10.90
2018-11-04T01:28:14.572Z,11.00
2018-11-04T01:30:43.171Z,10.90
2018-11-04T01:33:11.468Z,11.00
2018-11-04T01:35:39.711Z,11.10
2018-11-04T01:38:08.343Z,11.10
2018-11-04T01:40:36.625Z,11.00
2018-11-04T01:43:05.712Z,11.00
2018-11-04T01:45:34.537Z,11.10
2018-11-04T01:48:02.767Z,11.10
2018-11-04T01:50:31.784Z,11.00
2018-11-04T01:53:00.040Z,11.00
2018-11-04T01:55:28.791Z,10.90
2018-11-04T01:57:57.577Z,11.00
2018-11-04T02:00:25.830Z,11.10
2018-11-04T02:02:54.404Z,11.20
2018-11-04T02:05:22.628Z,11.20
2018-11-04T02:07:51.415Z,11.20
2018-11-04T02:10:19.720Z,11.20
2018-11-04T02:12:48.583Z,11.00
2018-11-04T02:15:16.967Z,11.00
2018-11-04T02:17:45.623Z,11.00
2018-11-04T02:20:14.166Z,11.00
2018-11-04T02:22:42.659Z,11.00
2018-11-04T02:25:12.270Z,11.00
2018-11-04T02:27:40.880Z,11.10
2018-11-04T02:30:17.019Z,11.20
2018-11-04T02:32:46.264Z,11.10
2018-11-04T02:35:15.023Z,11.20
2018-11-04T02:37:43.223Z,11.20
2018-11-04T02:40:12.504Z,11.20
2018-11-04T02:42:40.732Z,11.10
2018-11-04T02:45:09.850Z,11.20
2018-11-04T02:47:38.084Z,11.00
2018-11-04T02:50:07.007Z,11.00
2018-11-04T02:52:35.308Z,11.10
2018-11-04T02:55:03.534Z,11.10
2018-11-04T02:57:31.848Z,11.10
2018-11-04T03:00:00.077Z,11.10
2018-11-04T03:02:28.283Z,11.00
2018-11-04T03:04:57.378Z,11.00
2018-11-04T03:07:26.170Z,11.10
2018-11-04T03:09:54.407Z,11.10
2018-11-04T03:12:22.691Z,11.20
2018-11-04T03:14:51.506Z,11.10
2018-11-04T03:17:20.299Z,11.10
2018-11-04T03:19:49.053Z,11.10
2018-11-04T03:22:17.242Z,11.20
2018-11-04T03:24:45.609Z,11.20
2018-11-04T03:27:13.702Z,11.20
2018-11-04T03:29:42.183Z,11.20
2018-11-04T03:32:10.979Z,11.20
2018-11-04T03:34:39.219Z,11.20
2018-11-04T03:37:07.526Z,11.20
2018-11-04T03:39:35.831Z,11.20
2018-11-04T03:42:04.082Z,11.20
2018-11-04T03:44:32.444Z,11.10
2018-11-04T03:47:00.687Z,11.00
2018-11-04T03:49:29.470Z,11.10
2018-11-04T03:51:57.741Z,11.10
2018-11-04T03:54:26.595Z,11.20
2018-11-04T03:56:54.863Z,11.10
2018-11-04T03:59:23.177Z,11.00
2018-11-04T04:01:51.436Z,11.10
2018-11-04T04:04:20.002Z,11.20
2018-11-04T04:06:48.385Z,11.20
2018-11-04T04:09:17.034Z,11.20
2018-11-04T04:11:45.247Z,11.20
2018-11-04T04:14:13.760Z,11.10
2018-11-04T04:16:42.836Z,11.20
2018-11-04T04:19:11.113Z,11.20
2018-11-04T04:21:39.403Z,11.20
2018-11-04T04:24:07.914Z,11.20
2018-11-04T04:26:36.945Z,11.20
2018-11-04T04:29:05.214Z,11.10
2018-11-04T04:31:33.898Z,11.20
2018-11-04T04:34:02.132Z,11.20
2018-11-04T04:36:30.359Z,11.20
2018-11-04T04:38:58.595Z,11.30
2018-11-04T04:41:26.825Z,11.10
2018-11-04T04:43:55.558Z,11.10
2018-11-04T04:46:23.766Z,11.20
2018-11-04T04:48:52.024Z,11.20
2018-11-04T04:51:20.287Z,11.10
2018-11-04T04:53:48.507Z,11.00
2018-11-04T04:56:17.422Z,11.00
2018-11-04T04:58:45.633Z,11.20
2018-11-04T05:01:13.843Z,11.10
2018-11-04T05:03:42.376Z,11.10
2018-11-04T05:06:10.651Z,11.20
2018-11-04T05:08:39.414Z,11.10
2018-11-04T05:11:07.627Z,11.10
2018-11-04T05:13:36.451Z,11.30
2018-11-04T05:16:04.856Z,11.30
2018-11-04T05:18:33.574Z,11.20
2018-11-04T05:21:01.775Z,11.10
2018-11-04T05:23:30.524Z,11.10
2018-11-04T05:25:58.759Z,11.10
2018-11-04T05:28:34.170Z,11.20
2018-11-04T05:31:02.784Z,11.10
2018-11-04T05:33:32.078Z,11.20
2018-11-04T05:36:00.359Z,11.20
2018-11-04T05:38:28.805Z,11.10
2018-11-04T05:40:57.131Z,11.10
2018-11-04T05:43:25.378Z,11.10
2018-11-04T05:45:53.971Z,11.00
2018-11-04T05:48:22.214Z,11.10
2018-11-04T05:50:51.748Z,11.00
2018-11-04T05:53:20.048Z,11.10
2018-11-04T05:55:48.247Z,11.10
2018-11-04T05:58:16.543Z,11.10
2018-11-04T06:00:44.807Z,11.00
2018-11-04T06:03:13.907Z,11.00
2018-11-04T06:05:42.182Z,11.00
2018-11-04T06:08:10.891Z,11.10
2018-11-04T06:10:39.151Z,11.10
2018-11-04T06:13:14.611Z,11.10
2018-11-04T06:15:42.906Z,11.00
2018-11-04T06:18:11.531Z,11.00
2018-11-04T06:20:39.819Z,11.10
2018-11-04T06:23:08.067Z,11.00
2018-11-04T06:25:36.678Z,10.90
2018-11-04T06:28:04.982Z,11.00
2018-11-04T06:30:33.644Z,11.00
2018-11-04T06:33:02.683Z,11.10
2018-11-04T06:35:30.946Z,11.20
2018-11-04T06:37:59.181Z,11.20
2018-11-04T06:40:27.459Z,11.20
2018-11-04T06:42:55.707Z,11.20
2018-11-04T06:45:24.558Z,11.20
2018-11-04T06:47:52.764Z,11.30
2018-11-04T06:50:20.979Z,11.20
2018-11-04T06:52:49.498Z,11.20
2018-11-04T06:55:18.448Z,11.20
2018-11-04T06:57:47.163Z,11.20
2018-11-04T07:00:15.439Z,11.20
2018-11-04T07:02:44.431Z,11.30
2018-11-04T07:05:12.932Z,11.30
2018-11-04T07:07:41.411Z,11.40
2018-11-04T07:10:10.001Z,11.40
2018-11-04T07:12:39.074Z,11.40
2018-11-04T07:15:07.322Z,11.20
2018-11-04T07:17:36.199Z,11.30
2018-11-04T07:20:06.461Z,11.30
2018-11-04T07:22:34.999Z,11.40
2018-11-04T07:25:03.224Z,11.50
2018-11-04T07:27:31.480Z,11.50
2018-11-04T07:29:59.763Z,11.60
2018-11-04T07:32:28.191Z,11.50
2018-11-04T07:34:56.435Z,11.60
2018-11-04T07:37:24.691Z,11.50
2018-11-04T07:39:52.942Z,11.60
2018-11-04T07:42:21.216Z,11.60
2018-11-04T07:44:49.831Z,11.70
2018-11-04T07:47:18.323Z,11.60
2018-11-04T07:49:46.573Z,11.50
2018-11-04T07:52:15.811Z,11.50
2018-11-04T07:54:44.109Z,11.50
2018-11-04T07:57:12.243Z,11.50
2018-11-04T07:59:40.510Z,11.60
2018-11-04T08:02:08.751Z,11.70
2018-11-04T08:04:38.435Z,11.70
2018-11-04T08:07:07.355Z,11.60
2018-11-04T08:09:36.088Z,11.70
2018-11-04T08:12:04.903Z,11.80
2018-11-04T08:14:33.539Z,11.80
2018-11-04T08:17:02.049Z,11.70
2018-11-04T08:19:30.259Z,11.60
2018-11-04T08:21:58.518Z,11.70
2018-11-04T08:24:27.219Z,11.80
2018-11-04T08:26:55.495Z,11.90
2018-11-04T08:29:23.752Z,12.00
2018-11-04T08:31:52.547Z,12.10
2018-11-04T08:34:20.767Z,11.90
2018-11-04T08:36:49.030Z,11.90
2018-11-04T08:39:17.323Z,11.90
2018-11-04T08:41:45.762Z,11.90
2018-11-04T08:44:14.692Z,11.90
2018-11-04T08:46:42.976Z,11.90
2018-11-04T08:49:11.239Z,12.00
2018-11-04T08:51:39.619Z,12.10
2018-11-04T08:54:07.896Z,12.30
2018-11-04T08:56:36.903Z,12.20
2018-11-04T08:59:05.368Z,12.10
2018-11-04T09:01:33.619Z,12.00
2018-11-04T09:04:02.199Z,12.10
2018-11-04T09:06:30.492Z,12.20
2018-11-04T09:08:59.012Z,12.00
2018-11-04T09:11:29.054Z,12.10
2018-11-04T09:13:58.074Z,12.20
2018-11-04T09:16:26.262Z,12.00
2018-11-04T09:18:54.945Z,11.90
2018-11-04T09:21:23.173Z,11.90
2018-11-04T09:23:51.583Z,11.90
2018-11-04T09:26:19.815Z,12.00
2018-11-04T09:28:48.059Z,12.10
2018-11-04T09:31:16.847Z,12.10
2018-11-04T09:33:46.397Z,12.10
2018-11-04T09:36:14.813Z,12.10
2018-11-04T09:38:42.992Z,12.10
2018-11-04T09:41:11.287Z,12.10
2018-11-04T09:43:39.518Z,12.10
2018-11-04T09:46:08.332Z,12.10
2018-11-04T09:48:36.595Z,12.20
2018-11-04T09:51:05.009Z,12.20
2018-11-04T09:53:33.630Z,12.30
2018-11-04T09:56:01.930Z,12.40
2018-11-04T09:58:30.123Z,12.40
2018-11-04T10:00:58.375Z,12.40
2018-11-04T10:03:27.287Z,12.50
2018-11-04T10:05:56.091Z,12.40
2018-11-04T10:08:25.098Z,12.40
2018-11-04T10:10:53.344Z,12.50
2018-11-04T10:13:22.161Z,12.50
2018-11-04T10:15:50.367Z,12.60
2018-11-04T10:18:19.062Z,12.50
2018-11-04T10:20:47.728Z,12.50
2018-11-04T10:23:15.945Z,12.50
2018-11-04T10:25:44.135Z,12.40
2018-11-04T10:28:12.383Z,12.40
2018-11-04T10:30:41.156Z,12.50
2018-11-04T10:33:09.386Z,12.50
2018-11-04T10:35:38.068Z,12.50
2018-11-04T10:38:06.366Z,12.70
2018-11-04T10:40:35.438Z,12.70
2018-11-04T10:43:03.696Z,12.60
2018-11-04T10:45:32.315Z,12.50
2018-11-04T10:48:00.572Z,12.60
2018-11-04T10:50:28.821Z,12.60
2018-11-04T10:52:57.098Z,12.80
2018-11-04T10:55:25.372Z,12.70
2018-11-04T10:57:53.639Z,12.60
2018-11-04T11:00:27.363Z,12.50
2018-11-04T11:02:56.190Z,12.60
2018-11-04T11:05:24.646Z,12.50
2018-11-04T11:07:53.539Z,12.50
2018-11-04T11:10:22.328Z,12.70
2018-11-04T11:12:50.771Z,12.80
2018-11-04T11:15:19.005Z,12.80
2018-11-04T11:17:47.787Z,13.00
2018-11-04T11:20:16.029Z,12.90
2018-11-04T11:22:45.107Z,13.00
2018-11-04T11:25:13.123Z,12.80
2018-11-04T11:27:41.842Z,12.90
2018-11-04T11:30:10.471Z,12.80
2018-11-04T11:32:38.798Z,12.90
2018-11-04T11:35:07.608Z,12.90
2018-11-04T11:37:36.244Z,12.90
2018-11-04T11:40:04.687Z,13.00
2018-11-04T11:42:32.969Z,13.10
2018-11-04T11:45:01.605Z,13.00
2018-11-04T11:47:29.698Z,12.90
2018-11-04T11:49:57.983Z,12.90
2018-11-04T11:52:26.935Z,13.00
2018-11-04T11:54:55.147Z,12.90
2018-11-04T11:57:23.348Z,12.90
2018-11-04T11:59:51.827Z,13.00
2018-11-04T12:02:20.152Z,12.90
2018-11-04T12:04:48.570Z,13.00
2018-11-04T12:07:17.572Z,13.00
2018-11-04T12:09:45.840Z,13.10
2018-11-04T12:12:14.351Z,13.20
2018-11-04T12:14:43.117Z,13.10
2018-11-04T12:17:12.080Z,13.10
2018-11-04T12:19:40.281Z,13.00
2018-11-04T12:22:08.510Z,13.20
2018-11-04T12:24:36.723Z,13.20
2018-11-04T12:27:05.076Z,13.10
2018-11-04T12:29:33.382Z,12.90
2018-11-04T12:32:01.668Z,13.10
2018-11-04T12:34:29.892Z,13.00
2018-11-04T12:36:58.551Z,13.20
2018-11-04T12:39:26.813Z,13.30
2018-11-04T12:41:55.008Z,13.30
2018-11-04T12:44:23.675Z,13.30
2018-11-04T12:46:51.913Z,13.40
2018-11-04T12:49:20.941Z,13.30
2018-11-04T12:51:49.137Z,13.30
2018-11-04T12:54:17.335Z,13.30
2018-11-04T12:56:45.825Z,13.30
2018-11-04T12:59:14.697Z,13.40
2018-11-04T13:01:42.974Z,13.30
2018-11-04T13:04:11.535Z,13.20
2018-11-04T13:06:39.871Z,13.20
2018-11-04T13:09:09.043Z,13.10
2018-11-04T13:11:37.887Z,13.00
2018-11-04T13:14:06.704Z,13.00
2018-11-04T13:16:35.141Z,13.10
2018-11-04T13:19:03.731Z,13.10
2018-11-04T13:21:32.618Z,13.00
2018-11-04T13:24:00.943Z,13.10
2018-11-04T13:26:29.191Z,13.10
2018-11-04T13:28:57.753Z,13.20
2018-11-04T13:31:26.223Z,13.20
2018-11-04T13:33:54.487Z,13.20
2018-11-04T13:36:22.693Z,13.30
2018-11-04T13:38:50.971Z,13.30
2018-11-04T13:41:19.179Z,13.40
2018-11-04T13:43:48.941Z,13.40
2018-11-04T13:46:17.128Z,13.50
2018-11-04T13:48:45.950Z,13.40
2018-11-04T13:51:14.235Z,13.40
2018-11-04T13:53:42.572Z,13.40
2018-11-04T13:56:11.047Z,13.40
2018-11-04T13:58:39.254Z,13.30
2018-11-04T14:01:07.588Z,13.40
2018-11-04T14:03:36.306Z,13.60
2018-11-04T14:06:04.703Z,13.40
2018-11-04T14:08:33.188Z,13.40
2018-11-04T14:11:01.439Z,13.30
2018-11-04T14:13:30.423Z,13.30
2018-11-04T14:15:59.602Z,13.20
2018-11-04T14:18:28.642Z,13.10
2018-11-04T14:20:56.889Z,13.10
2018-11-04T14:23:25.447Z,13.20
2018-11-04T14:25:53.685Z,13.20
2018-11-04T14:28:21.955Z,13.20
2018-11-04T14:30:50.551Z,13.10
2018-11-04T14:33:18.784Z,13.10
2018-11-04T14:35:47.371Z,13.10
2018-11-04T14:38:15.620Z,13.20
2018-11-04T14:40:43.839Z,13.10
2018-11-04T14:43:12.079Z,13.10
2018-11-04T14:45:41.112Z,13.00
2018-11-04T14:48:09.259Z,13.00
2018-11-04T14:50:37.517Z,12.90
2018-11-04T14:53:06.259Z,12.90
2018-11-04T14:55:34.397Z,13.00
2018-11-04T15:00:34.016Z,13.00
2018-11-04T15:03:03.692Z,12.90
2018-11-04T15:05:32.474Z,12.80
2018-11-04T15:08:01.229Z,12.80
2018-11-04T15:10:29.419Z,12.80
2018-11-04T15:12:58.389Z,12.80
2018-11-04T15:15:26.625Z,12.60
2018-11-04T15:17:55.387Z,12.60
2018-11-04T15:20:23.665Z,12.50
2018-11-04T15:22:52.503Z,12.30
2018-11-04T15:25:21.819Z,12.40
2018-11-04T15:27:51.118Z,12.40
2018-11-04T15:30:19.516Z,12.20
2018-11-04T15:32:48.170Z,12.20
2018-11-04T15:35:17.011Z,12.20
2018-11-04T15:37:45.758Z,12.20
2018-11-04T15:40:15.554Z,12.30
2018-11-04T15:45:08.826Z,12.40
2018-11-04T15:47:37.295Z,12.50
2018-11-04T15:50:07.087Z,12.50
2018-11-04T15:52:35.927Z,12.50
2018-11-04T15:55:04.397Z,12.40
2018-11-04T15:57:32.628Z,12.40
2018-11-04T16:00:00.965Z,12.40
2018-11-04T16:02:29.247Z,12.30
2018-11-04T16:04:57.876Z,12.20
2018-11-04T16:07:27.144Z,12.30
2018-11-04T16:09:55.355Z,12.30
2018-11-04T16:12:24.053Z,12.20
2018-11-04T16:14:52.748Z,12.10
2018-11-04T16:17:21.634Z,12.10
2018-11-04T16:19:50.088Z,12.10
2018-11-04T16:22:18.620Z,12.10
2018-11-04T16:24:47.193Z,12.20
2018-11-04T16:27:15.842Z,12.20
2018-11-04T16:29:44.106Z,12.20
2018-11-04T16:32:12.407Z,12.10
2018-11-04T16:34:40.660Z,12.20
2018-11-04T16:37:08.918Z,12.30
2018-11-04T16:39:37.336Z,12.30
2018-11-04T16:42:06.157Z,12.20
2018-11-04T16:44:35.453Z,12.20
2018-11-04T16:47:03.516Z,12.30
2018-11-04T16:49:31.723Z,12.30
2018-11-04T16:51:59.943Z,12.20
2018-11-04T16:54:28.242Z,12.20
2018-11-04T16:56:56.652Z,12.20
2018-11-04T16:59:25.644Z,12.20
2018-11-04T17:01:53.863Z,12.20
2018-11-04T17:04:22.528Z,12.20
2018-11-04T17:06:50.699Z,12.30
2018-11-04T17:09:19.666Z,12.30
2018-11-04T17:11:48.082Z,12.30
2018-11-04T17:14:16.726Z,12.20
2018-11-04T17:16:45.448Z,12.10
2018-11-04T17:19:13.719Z,12.20
2018-11-04T17:21:41.985Z,12.20
2018-11-04T17:24:10.203Z,12.20
2018-11-04T17:26:38.412Z,12.20
2018-11-04T17:29:06.739Z,12.30
2018-11-04T17:31:35.394Z,12.30
2018-11-04T17:34:05.938Z,12.20
2018-11-04T17:36:34.424Z,12.20
2018-11-04T17:39:02.595Z,12.20
2018-11-04T17:41:31.059Z,12.10
2018-11-04T17:44:00.298Z,12.20
2018-11-04T17:46:28.559Z,12.20
2018-11-04T17:48:56.915Z,12.30
2018-11-04T17:51:25.321Z,12.30
2018-11-04T17:53:53.861Z,12.30
2018-11-04T17:56:22.131Z,12.30
2018-11-04T17:58:50.355Z,12.40
2018-11-04T18:01:18.628Z,12.30
2018-11-04T18:03:47.396Z,12.30
2018-11-04T18:06:15.599Z,12.30
2018-11-04T18:08:44.626Z,12.20
2018-11-04T18:11:13.231Z,12.20
2018-11-04T18:13:42.004Z,12.30
2018-11-04T18:16:10.220Z,12.30
2018-11-04T18:18:38.757Z,12.30
2018-11-04T18:23:31.564Z,12.30
2018-11-04T18:25:59.867Z,12.30
2018-11-04T18:28:28.195Z,12.20
2018-11-04T18:30:56.491Z,12.20
2018-11-04T18:33:24.767Z,12.20
2018-11-04T18:35:53.055Z,12.10
2018-11-04T18:38:21.396Z,12.10
2018-11-04T18:40:49.797Z,11.80
2018-11-04T18:43:18.130Z,11.90
2018-11-04T18:45:46.573Z,11.80
2018-11-04T18:48:14.808Z,11.70
2018-11-04T18:50:43.033Z,11.70
2018-11-04T18:53:11.508Z,11.80
2018-11-04T18:55:39.729Z,11.80
2018-11-04T18:58:08.012Z,11.70
2018-11-04T19:00:36.886Z,11.60
2018-11-04T19:03:05.614Z,11.60
2018-11-04T19:05:33.943Z,11.70
2018-11-04T19:08:02.419Z,11.70
2018-11-04T19:10:30.901Z,11.60
2018-11-04T19:12:59.579Z,11.60
2018-11-04T19:15:27.854Z,11.70
2018-11-04T19:17:56.491Z,11.60
2018-11-04T19:20:24.951Z,11.50
2018-11-04T19:22:53.453Z,11.50
2018-11-04T19:25:21.656Z,11.50
2018-11-04T19:27:49.903Z,11.60
2018-11-04T19:30:19.051Z,11.70
2018-11-04T19:32:47.431Z,11.60
2018-11-04T19:35:16.585Z,11.60
2018-11-04T19:37:44.893Z,11.50
2018-11-04T19:40:14.165Z,11.60
2018-11-04T19:42:42.661Z,11.70
2018-11-04T19:45:10.856Z,11.70
2018-11-04T19:47:39.588Z,11.50
2018-11-04T19:54:55.358Z,11.70
2018-11-04T19:57:27.860Z,11.60
2018-11-04T19:59:56.999Z,11.60
2018-11-04T20:02:25.456Z,11.60
2018-11-04T20:04:54.266Z,11.60
2018-11-04T20:07:23.237Z,11.70
2018-11-04T20:09:51.513Z,11.70
2018-11-04T20:12:25.420Z,11.70
2018-11-04T20:14:53.804Z,11.70
2018-11-04T20:17:22.583Z,11.70
2018-11-04T20:19:56.554Z,11.70
2018-11-04T20:22:24.934Z,11.70
2018-11-04T20:24:58.945Z,11.60
2018-11-04T20:27:27.305Z,11.50
2018-11-04T20:29:55.540Z,11.60
2018-11-04T20:32:29.111Z,11.50
2018-11-04T20:34:57.410Z,11.60
2018-11-04T20:37:25.695Z,11.60
2018-11-04T20:39:59.337Z,11.60
2018-11-04T20:42:27.986Z,11.70
2018-11-04T20:44:56.571Z,11.60
2018-11-04T20:47:30.498Z,11.50
2018-11-04T20:51:07.342Z,11.60
2018-11-04T20:53:36.148Z,11.70
2018-11-04T20:56:09.903Z,11.80
2018-11-04T20:58:38.233Z,11.80
2018-11-04T21:01:06.392Z,11.80
2018-11-04T21:03:34.972Z,11.80
2018-11-04T21:06:03.307Z,11.80
2018-11-04T21:08:31.994Z,11.90
2018-11-04T21:11:00.611Z,11.90
2018-11-04T21:13:30.465Z,11.80
2018-11-04T21:15:58.722Z,11.90
2018-11-04T21:18:27.376Z,11.90
2018-11-04T21:20:56.038Z,11.90
2018-11-04T21:23:24.243Z,11.90
2018-11-04T21:25:52.527Z,11.90
2018-11-04T21:28:20.899Z,11.80
2018-11-04T21:30:49.135Z,11.70
2018-11-04T21:33:17.360Z,11.70
2018-11-04T21:35:45.611Z,11.80
2018-11-04T21:38:13.835Z,11.90
2018-11-04T21:40:42.603Z,11.90
2018-11-04T21:43:11.014Z,11.90
2018-11-04T21:45:40.097Z,12.00
2018-11-04T21:48:08.327Z,11.90
2018-11-04T21:50:36.552Z,11.90
2018-11-04T21:53:05.179Z,11.80
2018-11-04T21:55:33.535Z,11.90
2018-11-04T21:58:01.604Z,11.90
2018-11-04T22:00:29.836Z,11.90
2018-11-04T22:02:58.809Z,11.90
2018-11-04T22:05:26.943Z,11.80
2018-11-04T22:07:55.435Z,11.80
2018-11-04T22:10:23.660Z,11.80
2018-11-04T22:12:52.320Z,11.90
2018-11-04T22:15:20.559Z,11.90
2018-11-04T22:17:49.117Z,11.80
2018-11-04T22:20:18.727Z,11.80
2018-11-04T22:22:47.056Z,11.80
2018-11-04T22:25:15.299Z,11.80
2018-11-04T22:27:43.988Z,11.70
2018-11-04T22:30:12.699Z,11.70
2018-11-04T22:32:41.390Z,11.80
2018-11-04T22:35:11.136Z,11.80
2018-11-04T22:37:39.698Z,11.80
2018-11-04T22:40:09.383Z,11.90
2018-11-04T22:42:37.707Z,12.00
2018-11-04T22:45:06.652Z,12.00
2018-11-04T22:47:34.895Z,11.90
2018-11-04T22:50:03.118Z,11.90
2018-11-04T22:52:31.390Z,11.90
2018-11-04T22:55:00.056Z,11.90
2018-11-04T22:57:28.293Z,11.80
2018-11-04T22:59:56.548Z,11.90
2018-11-04T23:02:25.072Z,11.80
2018-11-04T23:04:59.372Z,11.80
2018-11-04T23:07:27.970Z,11.80
2018-11-04T23:09:56.172Z,11.80
2018-11-04T23:12:25.573Z,11.90
2018-11-04T23:14:53.799Z,11.90
2018-11-04T23:17:22.770Z,11.90
2018-11-04T23:19:51.482Z,11.80
2018-11-04T23:22:20.148Z,11.70
2018-11-04T23:24:48.398Z,11.60
2018-11-04T23:27:16.650Z,11.60
2018-11-04T23:29:44.891Z,11.70
2018-11-04T23:32:13.113Z,11.70
2018-11-04T23:34:41.392Z,11.60
2018-11-04T23:37:09.635Z,11.60
2018-11-04T23:39:37.869Z,11.70
2018-11-04T23:42:06.272Z,11.70
2018-11-04T23:44:34.594Z,11.60
2018-11-04T23:47:02.888Z,11.60
2018-11-04T23:49:31.139Z,11.60
2018-11-04T23:51:59.640Z,11.60
2018-11-04T23:54:28.290Z,11.50
2018-11-04T23:56:56.567Z,11.50
2018-11-04T23:59:24.858Z,11.40
